Time;durP1;ratioP1;P1;durP2;ratioP2;P2;SDS_P1;SDS_P2;PMS_P1;PMS_P2;Temp;Humidity;BMP_temperature;BMP_pressure;BME280_temperature;BME280_humidity;BME280_pressure;Samples;Min_cycle;Max_cycle;Signal;HPM_P1;HPM_P2
2022/12/19 00:01:56;;;;;;;1999.90;999.90;;;0.70;99.90;;;;;;5030289;28;20466;-65
2022/12/19 00:04:23;;;;;;;1999.90;999.90;;;0.80;99.90;;;;;;5028623;28;20459;-66
2022/12/19 00:06:50;;;;;;;1999.90;999.90;;;0.80;99.90;;;;;;5028196;28;20491;-66
2022/12/19 00:09:17;;;;;;;1999.90;999.90;;;0.90;99.90;;;;;;5030307;28;20463;-65
2022/12/19 00:11:43;;;;;;;1999.90;999.90;;;0.70;99.90;;;;;;5029507;28;20467;-66
2022/12/19 00:14:12;;;;;;;1999.90;999.90;;;0.80;99.90;;;;;;5029776;28;20732;-67
2022/12/19 00:16:38;;;;;;;1999.90;999.90;;;0.70;99.90;;;;;;5029114;28;20494;-67
2022/12/19 00:19:05;;;;;;;1999.90;999.90;;;0.80;99.90;;;;;;5028529;28;20463;-66
2022/12/19 00:21:34;;;;;;;1999.90;999.90;;;0.80;99.90;;;;;;5029943;28;20470;-67
2022/12/19 00:24:01;;;;;;;1999.90;999.90;;;0.80;99.90;;;;;;5029745;28;20455;-66
2022/12/19 00:26:30;;;;;;;1999.90;999.90;;;1.00;99.90;;;;;;5025542;28;20462;-66
2022/12/19 00:28:59;;;;;;;1999.90;999.90;;;1.10;99.90;;;;;;5027967;28;20851;-65
2022/12/19 00:31:29;;;;;;;1999.90;999.90;;;1.00;99.90;;;;;;5025020;28;20458;-66
2022/12/19 00:33:57;;;;;;;1999.90;999.90;;;1.00;99.90;;;;;;5036216;28;20463;-67
2022/12/19 00:36:25;;;;;;;1999.90;999.90;;;1.00;99.90;;;;;;5038986;28;20463;-66
2022/12/19 00:38:54;;;;;;;1999.90;999.90;;;1.00;99.90;;;;;;5029558;28;20467;-67
2022/12/19 00:41:22;;;;;;;1999.90;999.90;;;1.10;99.90;;;;;;5030277;28;20483;-67
2022/12/19 00:43:53;;;;;;;1999.90;999.90;;;1.20;99.90;;;;;;5030659;28;20474;-67
2022/12/19 00:46:20;;;;;;;1999.90;999.90;;;1.20;99.90;;;;;;5029833;28;20467;-67
2022/12/19 00:48:48;;;;;;;1999.90;999.90;;;1.10;99.90;;;;;;5028606;28;20470;-67
2022/12/19 00:51:16;;;;;;;1999.90;999.90;;;1.10;99.90;;;;;;5028997;28;20869;-67
2022/12/19 00:53:43;;;;;;;1999.90;999.90;;;1.10;99.90;;;;;;5027792;28;20467;-67
2022/12/19 00:56:12;;;;;;;1999.90;999.90;;;1.20;99.90;;;;;;5026389;28;20459;-65
2022/12/19 00:58:39;;;;;;;1999.90;999.90;;;1.10;99.90;;;;;;5028774;28;20475;-67
2022/12/19 01:01:07;;;;;;;1999.90;999.90;;;1.30;99.90;;;;;;5028844;28;20489;-66
2022/12/19 01:03:34;;;;;;;1999.90;999.90;;;1.20;99.90;;;;;;5025734;28;20470;-64
2022/12/19 01:06:02;;;;;;;1999.90;999.90;;;1.30;99.90;;;;;;5026557;28;20466;-66
2022/12/19 01:08:29;;;;;;;1999.90;999.90;;;1.40;99.90;;;;;;5029267;28;20483;-67
2022/12/19 01:10:56;;;;;;;1999.90;999.90;;;1.30;99.90;;;;;;5028751;28;20993;-67
2022/12/19 01:13:24;;;;;;;1999.90;999.90;;;1.20;99.90;;;;;;5027678;28;20455;-67
2022/12/19 01:15:50;;;;;;;1999.90;999.90;;;1.30;99.90;;;;;;5026739;28;20940;-67
2022/12/19 01:18:17;;;;;;;1999.90;999.90;;;1.30;99.90;;;;;;5029747;28;20486;-67
2022/12/19 01:20:46;;;;;;;1999.90;999.90;;;1.30;99.90;;;;;;5028436;28;20483;-67
2022/12/19 01:23:15;;;;;;;1999.90;999.90;;;1.40;99.90;;;;;;5028270;28;20522;-67
2022/12/19 01:25:43;;;;;;;1999.90;999.90;;;1.30;99.90;;;;;;5027393;28;20466;-66
2022/12/19 01:28:13;;;;;;;1999.90;999.90;;;1.40;99.90;;;;;;5029190;28;20479;-67
2022/12/19 01:30:41;;;;;;;1999.90;999.90;;;1.40;99.90;;;;;;5028709;28;20975;-66
2022/12/19 01:33:11;;;;;;;1999.90;999.90;;;1.30;99.90;;;;;;5033088;28;20975;-68
2022/12/19 01:35:38;;;;;;;1999.90;999.90;;;1.50;99.90;;;;;;5029893;28;20466;-66
2022/12/19 01:38:05;;;;;;;1999.90;999.90;;;1.30;99.90;;;;;;5032193;28;20490;-67
2022/12/19 01:40:34;;;;;;;1999.90;999.90;;;1.50;99.90;;;;;;5032941;28;20491;-67
2022/12/19 01:43:01;;;;;;;1999.90;999.90;;;1.70;99.90;;;;;;5033000;28;21018;-67
2022/12/19 01:45:30;;;;;;;1999.90;999.90;;;1.90;99.90;;;;;;5032356;28;20462;-66
2022/12/19 01:48:04;;;;;;;1999.90;999.90;;;1.90;99.90;;;;;;5030741;28;20504;-66
2022/12/19 01:50:35;;;;;;;1999.90;999.90;;;1.80;99.90;;;;;;5029923;28;20623;-66
2022/12/19 01:53:03;;;;;;;1999.90;999.90;;;1.70;99.90;;;;;;5031049;28;20460;-66
2022/12/19 01:55:30;;;;;;;1999.90;999.90;;;1.70;99.90;;;;;;5031395;28;20463;-67
2022/12/19 01:57:59;;;;;;;1999.90;999.90;;;1.80;99.90;;;;;;5031393;28;20482;-67
2022/12/19 02:00:26;;;;;;;1999.90;999.90;;;1.80;99.90;;;;;;5026447;28;20490;-67
2022/12/19 02:02:57;;;;;;;1999.90;999.90;;;1.70;99.90;;;;;;5032130;28;20468;-67
2022/12/19 02:05:24;;;;;;;1999.90;999.90;;;1.90;99.90;;;;;;5030024;28;20467;-67
2022/12/19 02:07:52;;;;;;;1999.90;999.90;;;1.70;99.90;;;;;;5031966;28;20483;-67
2022/12/19 02:10:19;;;;;;;1999.90;999.90;;;1.80;99.90;;;;;;5032442;28;20466;-67
2022/12/19 02:12:46;;;;;;;1999.90;999.90;;;1.80;99.90;;;;;;5029239;28;20520;-67
2022/12/19 02:15:15;;;;;;;1999.90;999.90;;;1.80;99.90;;;;;;5030806;28;20459;-67
2022/12/19 02:17:57;;;;;;;1999.90;999.90;;;1.80;99.90;;;;;;5031568;28;20553;-67
2022/12/19 02:21:00;;;;;;;1999.90;999.90;;;1.80;99.90;;;;;;5032266;28;20471;-66
2022/12/19 02:24:06;;;;;;;1999.90;999.90;;;2.00;99.90;;;;;;5027363;28;20466;-66
2022/12/19 02:26:57;;;;;;;1999.90;999.90;;;2.10;99.90;;;;;;5029161;28;20494;-67
2022/12/19 02:29:49;;;;;;;1999.90;999.90;;;2.20;99.90;;;;;;5031815;28;20463;-65
2022/12/19 02:32:20;;;;;;;1999.90;999.90;;;2.20;99.90;;;;;;5031575;28;20459;-67
2022/12/19 02:34:53;;;;;;;1999.90;999.90;;;2.30;99.90;;;;;;5030451;28;20455;-68
2022/12/19 02:37:24;;;;;;;1999.90;999.90;;;2.60;99.90;;;;;;5029568;28;20498;-67
2022/12/19 02:39:56;;;;;;;1999.90;999.90;;;2.70;99.90;;;;;;5030741;28;20709;-66
2022/12/19 02:42:27;;;;;;;1999.90;999.90;;;3.10;99.90;;;;;;5031304;28;20459;-66
2022/12/19 02:44:55;;;;;;;1999.90;999.90;;;3.30;99.90;;;;;;5028814;28;20463;-65
2022/12/19 02:47:23;;;;;;;1999.90;999.90;;;3.60;99.90;;;;;;5030927;28;20482;-66
2022/12/19 02:49:50;;;;;;;1999.90;999.90;;;3.50;99.90;;;;;;5030670;28;20470;-67
2022/12/19 02:52:45;;;;;;;1999.90;999.90;;;3.30;99.90;;;;;;5031453;28;20477;-66
2022/12/19 02:55:16;;;;;;;1999.90;999.90;;;3.10;99.90;;;;;;5030412;28;20543;-66
2022/12/19 02:57:55;;;;;;;1999.90;999.90;;;2.90;99.90;;;;;;5030429;28;20471;-67
2022/12/19 03:00:25;;;;;;;1999.90;999.90;;;2.70;99.90;;;;;;5031446;28;20471;-66
2022/12/19 03:03:01;;;;;;;1999.90;999.90;;;2.60;99.90;;;;;;5048616;28;20485;-66
2022/12/19 03:05:39;;;;;;;1999.90;999.90;;;2.50;99.90;;;;;;5025013;28;21001;-64
2022/12/19 03:08:09;;;;;;;1999.90;999.90;;;2.50;99.90;;;;;;5030802;28;20490;-67
2022/12/19 03:10:38;;;;;;;1999.90;999.90;;;2.50;99.90;;;;;;5031618;28;20470;-67
2022/12/19 03:13:12;;;;;;;1999.90;999.90;;;2.50;99.90;;;;;;5031237;28;20836;-67
2022/12/19 03:15:40;;;;;;;1999.90;999.90;;;2.40;99.90;;;;;;5045007;28;20476;-66
2022/12/19 03:18:09;;;;;;;1999.90;999.90;;;2.60;99.90;;;;;;5046397;28;20483;-67
2022/12/19 03:20:43;;;;;;;1999.90;999.90;;;2.50;99.90;;;;;;5046914;28;20482;-67
2022/12/19 03:23:10;;;;;;;1999.90;999.90;;;2.60;99.90;;;;;;5048752;28;20481;-67
2022/12/19 03:25:38;;;;;;;1999.90;999.90;;;2.60;99.90;;;;;;5044914;28;20463;-67
2022/12/19 03:28:11;;;;;;;1999.90;999.90;;;2.70;99.90;;;;;;5037322;28;20475;-64
2022/12/19 03:30:40;;;;;;;1999.90;999.90;;;2.90;99.90;;;;;;5031456;28;20470;-67
2022/12/19 03:33:11;;;;;;;1999.90;999.90;;;3.10;99.90;;;;;;5031400;28;20986;-67
2022/12/19 03:35:39;;;;;;;1999.90;999.90;;;3.00;99.90;;;;;;5029157;28;20474;-66
2022/12/19 03:38:07;;;;;;;1999.90;999.90;;;3.00;99.90;;;;;;5030595;28;20498;-65
2022/12/19 03:40:39;;;;;;;1999.90;999.90;;;3.40;99.90;;;;;;5031158;28;20487;-67
2022/12/19 03:43:07;;;;;;;1999.90;999.90;;;3.60;99.90;;;;;;5030674;28;20959;-67
2022/12/19 03:45:45;;;;;;;1999.90;999.90;;;3.50;99.90;;;;;;5028813;28;20451;-67
2022/12/19 03:48:20;;;;;;;1999.90;999.90;;;3.50;99.90;;;;;;5030357;28;20475;-66
2022/12/19 03:50:53;;;;;;;1999.90;999.90;;;3.80;99.90;;;;;;5030348;28;20455;-66
2022/12/19 03:53:30;;;;;;;1999.90;999.90;;;3.90;99.90;;;;;;5030595;28;20451;-66
2022/12/19 03:56:04;;;;;;;1999.90;999.90;;;3.70;99.90;;;;;;5026403;28;20955;-66
2022/12/19 03:58:35;;;;;;;1999.90;999.90;;;3.70;99.90;;;;;;5026409;28;20482;-67
2022/12/19 04:01:04;;;;;;;1999.90;999.90;;;3.60;99.90;;;;;;5028363;28;20563;-63
2022/12/19 04:03:33;;;;;;;1999.90;999.90;;;3.40;99.90;;;;;;5030765;28;20467;-67
2022/12/19 04:06:01;;;;;;;1999.90;999.90;;;3.30;99.90;;;;;;5027425;28;20960;-66
2022/12/19 04:08:30;;;;;;;1999.90;999.90;;;3.40;99.90;;;;;;5024339;28;20494;-66
2022/12/19 04:11:03;;;;;;;1999.90;999.90;;;3.50;99.90;;;;;;5029227;28;20455;-67
2022/12/19 04:13:36;;;;;;;1999.90;999.90;;;3.50;99.90;;;;;;5025883;28;20485;-67
2022/12/19 04:16:11;;;;;;;1999.90;999.90;;;3.50;99.90;;;;;;5028504;28;20475;-67
2022/12/19 04:18:44;;;;;;;1999.90;999.90;;;3.50;99.90;;;;;;5030955;28;20463;-66
2022/12/19 04:21:14;;;;;;;1999.90;999.90;;;3.80;99.90;;;;;;5029053;28;21034;-66
2022/12/19 04:23:47;;;;;;;1999.90;999.90;;;3.50;99.90;;;;;;5030072;28;20470;-66
2022/12/19 04:26:19;;;;;;;1999.90;999.90;;;3.40;99.90;;;;;;5028116;28;20466;-65
2022/12/19 04:28:50;;;;;;;1999.90;999.90;;;3.20;99.90;;;;;;5028899;28;20493;-65
2022/12/19 04:31:19;;;;;;;1999.90;999.90;;;3.10;99.90;;;;;;5030358;28;20455;-67
2022/12/19 04:33:47;;;;;;;1999.90;999.90;;;3.20;99.90;;;;;;5028575;28;20470;-67
2022/12/19 04:36:14;;;;;;;1999.90;999.90;;;3.20;99.90;;;;;;5027136;28;20501;-64
2022/12/19 04:38:41;;;;;;;1999.90;999.90;;;3.30;99.90;;;;;;5029897;28;20459;-68
2022/12/19 04:41:08;;;;;;;1999.90;999.90;;;3.60;99.90;;;;;;5028471;28;20494;-67
2022/12/19 04:43:34;;;;;;;1999.90;999.90;;;3.40;99.90;;;;;;5030133;28;20467;-66
2022/12/19 04:46:01;;;;;;;1999.90;999.90;;;3.10;99.90;;;;;;5026827;28;20482;-66
2022/12/19 04:48:28;;;;;;;1999.90;999.90;;;3.20;99.90;;;;;;5029848;28;20558;-67
2022/12/19 04:50:56;;;;;;;1999.90;999.90;;;3.10;99.90;;;;;;5029205;28;20474;-67
2022/12/19 04:53:24;;;;;;;1999.90;999.90;;;3.30;99.90;;;;;;5029141;28;20486;-66
2022/12/19 04:55:51;;;;;;;1999.90;999.90;;;3.60;99.90;;;;;;5028237;28;20474;-67
2022/12/19 04:58:18;;;;;;;1999.90;999.90;;;3.70;99.90;;;;;;5027450;28;20486;-66
2022/12/19 05:00:44;;;;;;;1999.90;999.90;;;3.50;99.90;;;;;;5027458;28;20986;-66
2022/12/19 05:03:11;;;;;;;1999.90;999.90;;;3.50;99.90;;;;;;5028559;28;20463;-67
2022/12/19 05:05:38;;;;;;;1999.90;999.90;;;3.50;99.90;;;;;;5026183;28;20467;-67
2022/12/19 05:08:06;;;;;;;1999.90;999.90;;;3.50;99.90;;;;;;5027956;28;20484;-66
2022/12/19 05:10:33;;;;;;;1999.90;999.90;;;3.50;99.90;;;;;;5027237;28;20467;-66
2022/12/19 05:13:00;;;;;;;1999.90;999.90;;;3.50;99.90;;;;;;5028362;28;20466;-66
2022/12/19 05:15:27;;;;;;;1999.90;999.90;;;3.50;99.90;;;;;;5023228;28;20474;-66
2022/12/19 05:17:54;;;;;;;1999.90;999.90;;;3.50;99.90;;;;;;5028894;28;20617;-65
2022/12/19 05:20:21;;;;;;;1999.90;999.90;;;3.50;99.90;;;;;;5027902;28;21527;-65
2022/12/19 05:22:48;;;;;;;1999.90;999.90;;;3.50;99.90;;;;;;5027322;28;20490;-66
2022/12/19 05:25:16;;;;;;;1999.90;999.90;;;3.60;99.90;;;;;;5028299;28;20560;-67
2022/12/19 05:27:43;;;;;;;1999.90;999.90;;;3.60;99.90;;;;;;5029451;28;20483;-67
2022/12/19 05:30:11;;;;;;;1999.90;999.90;;;3.60;99.90;;;;;;5043826;28;20454;-66
2022/12/19 05:32:38;;;;;;;1999.90;999.90;;;3.60;99.90;;;;;;5028715;28;20467;-67
2022/12/19 05:35:05;;;;;;;1999.90;999.90;;;3.60;99.90;;;;;;5027137;28;20467;-66
2022/12/19 05:37:32;;;;;;;1999.90;999.90;;;3.40;99.90;;;;;;5028335;28;21002;-67
2022/12/19 05:39:59;;;;;;;1999.90;999.90;;;3.30;99.90;;;;;;5027950;28;20880;-66
2022/12/19 05:42:27;;;;;;;1999.90;999.90;;;3.30;99.90;;;;;;5029302;28;20474;-66
2022/12/19 05:44:53;;;;;;;1999.90;999.90;;;3.50;99.90;;;;;;5027336;28;20474;-66
2022/12/19 05:47:20;;;;;;;1999.90;999.90;;;3.40;99.90;;;;;;5028285;28;20514;-68
2022/12/19 05:49:47;;;;;;;1999.90;999.90;;;3.30;99.90;;;;;;5028538;28;20485;-66
2022/12/19 05:52:14;;;;;;;1999.90;999.90;;;3.30;99.90;;;;;;5028815;28;20451;-67
2022/12/19 05:54:40;;;;;;;1999.90;999.90;;;3.30;99.90;;;;;;5028475;28;20470;-62
2022/12/19 05:57:07;;;;;;;1999.90;999.90;;;3.20;99.90;;;;;;5026990;28;20487;-65
2022/12/19 05:59:35;;;;;;;1999.90;999.90;;;3.20;99.90;;;;;;5026737;28;20986;-66
2022/12/19 06:02:02;;;;;;;1999.90;999.90;;;3.40;99.90;;;;;;5027666;28;20475;-67
2022/12/19 06:04:29;;;;;;;1999.90;999.90;;;3.60;99.90;;;;;;5021344;28;20470;-66
2022/12/19 06:06:56;;;;;;;1999.90;999.90;;;3.90;99.90;;;;;;5027468;28;20486;-69
2022/12/19 06:09:23;;;;;;;1999.90;999.90;;;4.00;99.90;;;;;;5026885;28;20455;-67
2022/12/19 06:11:49;;;;;;;1999.90;999.90;;;4.10;99.90;;;;;;5028499;28;20466;-66
2022/12/19 06:14:16;;;;;;;1999.90;999.90;;;4.10;99.90;;;;;;5027979;28;20460;-66
2022/12/19 06:16:44;;;;;;;1999.90;999.90;;;4.10;99.90;;;;;;5028176;28;20487;-66
2022/12/19 06:19:11;;;;;;;1999.90;999.90;;;4.10;99.90;;;;;;5030034;28;20467;-66
2022/12/19 06:21:38;;;;;;;1999.90;999.90;;;4.10;99.90;;;;;;5032760;28;20479;-66
2022/12/19 06:24:06;;;;;;;1999.90;999.90;;;4.00;99.90;;;;;;5031844;28;20494;-68
2022/12/19 06:26:32;;;;;;;1999.90;999.90;;;4.10;99.90;;;;;;5031985;28;20482;-67
2022/12/19 06:28:59;;;;;;;1999.90;999.90;;;4.10;99.90;;;;;;5030895;28;20463;-67
2022/12/19 06:31:26;;;;;;;1999.90;999.90;;;4.30;99.90;;;;;;5032062;28;20459;-66
2022/12/19 06:33:55;;;;;;;1999.90;999.90;;;4.40;99.90;;;;;;5031797;28;20463;-65
2022/12/19 06:36:24;;;;;;;1999.90;999.90;;;4.30;99.90;;;;;;5030336;28;20470;-66
2022/12/19 06:38:51;;;;;;;1999.90;999.90;;;4.30;99.90;;;;;;5031583;28;20466;-67
2022/12/19 06:44:05;;;;;;;1999.90;999.90;;;4.20;99.90;;;;;;5029246;28;20528;-67
2022/12/19 06:46:32;;;;;;;1999.90;999.90;;;4.10;99.90;;;;;;5025216;28;20483;-67
2022/12/19 06:49:00;;;;;;;1999.90;999.90;;;4.00;99.90;;;;;;5030758;28;20459;-66
2022/12/19 06:51:27;;;;;;;1999.90;999.90;;;4.00;99.90;;;;;;5030412;28;20463;-67
2022/12/19 06:53:54;;;;;;;1999.90;999.90;;;4.00;99.90;;;;;;5028661;28;20466;-66
2022/12/19 06:56:21;;;;;;;1999.90;999.90;;;4.30;99.90;;;;;;5028547;28;20462;-66
2022/12/19 06:58:48;;;;;;;1999.90;999.90;;;4.60;99.90;;;;;;5031382;28;20462;-67
2022/12/19 07:01:19;;;;;;;1999.90;999.90;;;4.60;99.90;;;;;;5033572;28;20456;-65
2022/12/19 07:03:47;;;;;;;1999.90;999.90;;;4.70;99.90;;;;;;5033941;28;20439;-67
2022/12/19 07:06:16;;;;;;;1999.90;999.90;;;4.60;99.90;;;;;;5030419;28;20458;-66
2022/12/19 07:08:43;;;;;;;1999.90;999.90;;;4.30;99.90;;;;;;5030094;28;20482;-67
2022/12/19 07:11:09;;;;;;;1999.90;999.90;;;4.30;99.90;;;;;;5030349;28;20477;-67
2022/12/19 07:13:36;;;;;;;1999.90;999.90;;;4.40;99.90;;;;;;5031566;28;20454;-67
2022/12/19 07:16:05;;;;;;;1999.90;999.90;;;4.50;99.90;;;;;;5030548;28;20459;-67
2022/12/19 07:18:36;;;;;;;1999.90;999.90;;;4.50;99.90;;;;;;5029593;28;20487;-64
2022/12/19 07:21:06;;;;;;;1999.90;999.90;;;4.50;99.90;;;;;;5028559;28;20459;-66
2022/12/19 07:23:35;;;;;;;1999.90;999.90;;;4.50;99.90;;;;;;5030216;28;20487;-67
2022/12/19 07:26:02;;;;;;;1999.90;999.90;;;4.50;99.90;;;;;;5030023;28;20463;-67
2022/12/19 07:28:29;;;;;;;1999.90;999.90;;;4.70;99.90;;;;;;5028213;28;20490;-67
2022/12/19 07:30:55;;;;;;;1999.90;999.90;;;5.10;99.90;;;;;;5030712;28;20470;-66
2022/12/19 07:33:22;;;;;;;1999.90;999.90;;;6.40;99.90;;;;;;5027671;28;20459;-65
2022/12/19 07:35:49;;;;;;;1999.90;999.90;;;6.50;99.90;;;;;;5025533;28;20466;-65
2022/12/19 07:38:16;;;;;;;1999.90;999.90;;;6.30;99.90;;;;;;5028879;28;21037;-63
2022/12/19 07:40:44;;;;;;;1999.90;999.90;;;7.20;99.90;;;;;;5032137;28;20940;-65
2022/12/19 07:43:11;;;;;;;1999.90;999.90;;;7.10;99.90;;;;;;5027875;28;21003;-65
2022/12/19 07:45:38;;;;;;;1999.90;999.90;;;7.00;99.90;;;;;;5029063;28;20481;-64
2022/12/19 07:48:06;;;;;;;1999.90;999.90;;;6.90;99.90;;;;;;5029666;28;20495;-65
2022/12/19 07:50:34;;;;;;;1999.90;999.90;;;6.40;99.90;;;;;;5030764;28;20981;-65
2022/12/19 07:53:01;;;;;;;1999.90;999.90;;;6.00;99.90;;;;;;5036615;28;20459;-65
2022/12/19 07:55:28;;;;;;;1999.90;999.90;;;5.80;99.90;;;;;;5023513;28;20471;-65
2022/12/19 07:57:56;;;;;;;1999.90;999.90;;;5.80;99.90;;;;;;5043997;28;20467;-68
2022/12/19 08:00:23;;;;;;;1999.90;999.90;;;5.90;99.90;;;;;;5035434;28;20430;-63
2022/12/19 08:02:50;;;;;;;1999.90;999.90;;;5.90;99.90;;;;;;5031495;28;20487;-65
2022/12/19 08:05:17;;;;;;;1999.90;999.90;;;5.70;99.90;;;;;;5027399;28;20834;-64
2022/12/19 08:07:44;;;;;;;1999.90;999.90;;;5.60;99.90;;;;;;5028112;28;20486;-66
2022/12/19 08:10:11;;;;;;;1999.90;999.90;;;5.50;99.90;;;;;;5028990;28;20849;-65
2022/12/19 08:12:38;;;;;;;1999.90;999.90;;;5.40;99.90;;;;;;5027196;28;20945;-65
2022/12/19 08:15:07;;;;;;;1999.90;999.90;;;5.40;99.90;;;;;;5027431;28;20478;-66
2022/12/19 08:17:34;;;;;;;1999.90;999.90;;;5.40;99.90;;;;;;5028522;28;20487;-65
2022/12/19 08:20:01;;;;;;;1999.90;999.90;;;5.50;99.90;;;;;;5029066;28;20455;-65
2022/12/19 08:22:29;;;;;;;1999.90;999.90;;;5.50;99.90;;;;;;5023828;28;20526;-66
2022/12/19 08:24:56;;;;;;;1999.90;999.90;;;5.40;99.90;;;;;;5026827;28;20960;-65
2022/12/19 08:27:23;;;;;;;1999.90;999.90;;;5.90;99.90;;;;;;5029190;28;21082;-64
2022/12/19 08:29:50;;;;;;;1999.90;999.90;;;7.00;99.90;;;;;;5027750;28;20452;-65
2022/12/19 08:32:18;;;;;;;1999.90;999.90;;;6.80;99.90;;;;;;5026656;28;20455;-64
2022/12/19 08:34:45;;;;;;;1999.90;999.90;;;6.70;99.90;;;;;;5027799;28;20466;-65
2022/12/19 08:37:12;;;;;;;1999.90;999.90;;;6.70;99.90;;;;;;5026242;28;20483;-65
2022/12/19 08:39:39;;;;;;;1999.90;999.90;;;6.60;99.90;;;;;;5027985;28;20853;-65
2022/12/19 08:42:06;;;;;;;1999.90;999.90;;;6.50;99.90;;;;;;5028001;28;20487;-65
2022/12/19 08:44:32;;;;;;;1999.90;999.90;;;6.40;99.90;;;;;;5029007;28;20459;-66
2022/12/19 08:46:59;;;;;;;1999.90;999.90;;;6.10;99.90;;;;;;5029788;28;20991;-66
2022/12/19 08:49:27;;;;;;;1999.90;999.90;;;6.10;99.90;;;;;;5028353;28;20466;-65
2022/12/19 08:51:54;;;;;;;1999.90;999.90;;;6.00;99.90;;;;;;5031077;28;20463;-66
2022/12/19 08:54:21;;;;;;;1999.90;999.90;;;5.90;99.90;;;;;;5030367;28;20477;-66
2022/12/19 08:56:47;;;;;;;1999.90;999.90;;;5.90;99.90;;;;;;5029451;28;20505;-66
2022/12/19 08:59:14;;;;;;;1999.90;999.90;;;5.80;99.90;;;;;;5028755;28;20471;-65
2022/12/19 09:01:41;;;;;;;1999.90;999.90;;;5.70;99.90;;;;;;5028619;28;20467;-66
2022/12/19 09:04:08;;;;;;;1999.90;999.90;;;5.80;99.90;;;;;;5026835;28;21007;-65
2022/12/19 09:06:36;;;;;;;1999.90;999.90;;;5.70;99.90;;;;;;5025568;28;20498;-65
2022/12/19 09:09:03;;;;;;;1999.90;999.90;;;5.70;99.90;;;;;;5027458;28;20464;-65
2022/12/19 09:11:30;;;;;;;1999.90;999.90;;;5.60;99.90;;;;;;5031756;28;20940;-65
2022/12/19 09:13:57;;;;;;;1999.90;999.90;;;5.70;99.90;;;;;;5031570;28;20951;-66
2022/12/19 09:16:26;;;;;;;1999.90;999.90;;;5.70;99.90;;;;;;5029859;28;20944;-66
2022/12/19 09:18:55;;;;;;;1999.90;999.90;;;6.00;99.90;;;;;;5031604;28;20443;-66
2022/12/19 09:21:24;;;;;;;1999.90;999.90;;;6.20;99.90;;;;;;5032322;28;20446;-64
2022/12/19 09:23:53;;;;;;;1999.90;999.90;;;6.30;99.90;;;;;;5031908;28;20525;-65
2022/12/19 09:26:22;;;;;;;1999.90;999.90;;;6.50;99.90;;;;;;5030996;28;20455;-66
2022/12/19 09:28:49;;;;;;;1999.90;999.90;;;7.00;99.90;;;;;;5028063;28;20463;-66
2022/12/19 09:31:18;;;;;;;1999.90;999.90;;;7.30;99.90;;;;;;5034852;28;20446;-65
2022/12/19 09:33:45;;;;;;;1999.90;999.90;;;7.30;99.90;;;;;;5031807;28;20443;-65
2022/12/19 09:36:13;;;;;;;1999.90;999.90;;;7.40;99.90;;;;;;5028252;28;20937;-65
2022/12/19 09:38:39;;;;;;;1999.90;999.90;;;7.40;99.90;;;;;;5025470;28;20459;-65
2022/12/19 09:41:55;;;;;;;1999.90;999.90;;;7.50;99.90;;;;;;5024853;28;20467;-65
2022/12/19 09:44:36;;;;;;;1999.90;999.90;;;7.50;99.90;;;;;;4947412;29;20581;-64
2022/12/19 09:47:10;;;;;;;1999.90;999.90;;;7.50;99.90;;;;;;5014333;28;20481;-66
2022/12/19 09:49:39;;;;;;;1999.90;999.90;;;7.60;99.90;;;;;;5026872;28;20489;-66
2022/12/19 09:52:11;;;;;;;1999.90;999.90;;;7.70;99.90;;;;;;5051445;22;20499;-68
2022/12/19 09:54:42;;;;;;;1999.90;999.90;;;7.80;99.90;;;;;;5022840;28;20464;-68
2022/12/19 09:57:13;;;;;;;1999.90;999.90;;;7.80;99.90;;;;;;5027175;28;20467;-68
2022/12/19 09:59:45;;;;;;;1999.90;999.90;;;7.80;99.90;;;;;;5030338;28;20860;-68
2022/12/19 10:02:26;;;;;;;1999.90;999.90;;;7.80;99.90;;;;;;5030093;28;20854;-68
2022/12/19 10:05:01;;;;;;;1999.90;999.90;;;7.90;99.90;;;;;;5029768;28;20458;-68
2022/12/19 10:07:29;;;;;;;1999.90;999.90;;;7.70;99.90;;;;;;5030928;28;20974;-67
2022/12/19 10:09:56;;;;;;;1999.90;999.90;;;7.80;99.90;;;;;;5026785;28;20810;-68
2022/12/19 10:12:40;;;;;;;1999.90;999.90;;;7.90;99.90;;;;;;5033514;28;20481;-71
2022/12/19 10:15:17;;;;;;;1999.90;999.90;;;8.00;99.90;;;;;;5028635;28;20479;-70
2022/12/19 10:18:05;;;;;;;1999.90;999.90;;;8.10;99.90;;;;;;5031456;28;20462;-66
2022/12/19 10:20:35;;;;;;;1999.90;999.90;;;8.10;99.90;;;;;;5028512;28;20471;-69
2022/12/19 10:23:19;;;;;;;1999.90;999.90;;;8.10;99.90;;;;;;5032124;28;20491;-67
2022/12/19 10:25:57;;;;;;;1999.90;999.90;;;8.10;99.90;;;;;;5032638;28;20467;-70
2022/12/19 10:28:46;;;;;;;1999.90;999.90;;;8.10;99.90;;;;;;5035169;28;20518;-68
2022/12/19 10:31:17;;;;;;;1999.90;999.90;;;8.20;99.90;;;;;;5030946;28;20467;-69
2022/12/19 10:33:49;;;;;;;1999.90;999.90;;;8.30;99.90;;;;;;5031464;28;20470;-70
2022/12/19 10:36:16;;;;;;;1999.90;999.90;;;8.30;99.90;;;;;;5028732;28;20478;-70
2022/12/19 10:38:50;;;;;;;1999.90;999.90;;;8.50;99.90;;;;;;5027918;28;20459;-70
2022/12/19 10:41:21;;;;;;;1999.90;999.90;;;8.60;99.90;;;;;;5033588;28;20446;-67
2022/12/19 10:43:56;;;;;;;1999.90;999.90;;;8.60;99.90;;;;;;5026074;28;20472;-68
2022/12/19 10:46:35;;;;;;;1999.90;999.90;;;8.60;99.90;;;;;;5013797;28;20940;-68
2022/12/19 10:49:11;;;;;;;1999.90;999.90;;;8.60;99.90;;;;;;5029807;28;20467;-67
2022/12/19 10:51:37;;;;;;;1999.90;999.90;;;8.60;99.90;;;;;;5028491;28;20560;-70
2022/12/19 10:54:04;;;;;;;1999.90;999.90;;;8.60;99.90;;;;;;5030350;28;20979;-71
2022/12/19 10:56:32;;;;;;;1999.90;999.90;;;8.70;99.90;;;;;;5028916;28;20853;-68
2022/12/19 10:59:00;;;;;;;1999.90;999.90;;;8.50;99.90;;;;;;5031016;28;20474;-68
2022/12/19 11:01:29;;;;;;;1999.90;999.90;;;8.50;99.90;;;;;;5026174;28;20499;-69
2022/12/19 11:04:17;;;;;;;1999.90;999.90;;;8.60;99.90;;;;;;5025007;28;20491;-67
2022/12/19 11:06:48;;;;;;;1999.90;999.90;;;8.60;99.90;;;;;;5029197;28;20456;-68
2022/12/19 11:09:21;;;;;;;1999.90;999.90;;;8.60;99.90;;;;;;5031534;28;20570;-70
2022/12/19 11:11:49;;;;;;;1999.90;999.90;;;8.60;99.90;;;;;;5033045;28;20510;-70
2022/12/19 11:14:22;;;;;;;1999.90;999.90;;;8.60;99.90;;;;;;5030329;28;20481;-70
2022/12/19 11:16:50;;;;;;;1999.90;999.90;;;8.80;99.90;;;;;;5032568;28;20984;-70
2022/12/19 11:19:26;;;;;;;1999.90;999.90;;;8.80;99.90;;;;;;5033981;28;20446;-70
2022/12/19 11:21:53;;;;;;;1999.90;999.90;;;8.90;99.90;;;;;;5033068;28;20475;-70
2022/12/19 11:24:25;;;;;;;1999.90;999.90;;;8.90;99.90;;;;;;5033073;28;20487;-69
2022/12/19 11:26:53;;;;;;;1999.90;999.90;;;9.00;99.90;;;;;;5033635;28;20450;-70
2022/12/19 11:29:23;;;;;;;1999.90;999.90;;;9.10;99.90;;;;;;5033514;28;20451;-70
2022/12/19 11:31:58;;;;;;;1999.90;999.90;;;9.10;99.90;;;;;;5034034;28;20462;-70
2022/12/19 11:34:28;;;;;;;1999.90;999.90;;;9.20;99.90;;;;;;5031912;28;20458;-68
2022/12/19 11:37:00;;;;;;;1999.90;999.90;;;9.30;99.90;;;;;;5026496;28;20467;-70
2022/12/19 11:39:36;;;;;;;1999.90;999.90;;;9.30;99.90;;;;;;5025319;28;20451;-69
2022/12/19 11:42:12;;;;;;;1999.90;999.90;;;9.30;99.90;;;;;;5033123;28;20470;-70
2022/12/19 11:44:45;;;;;;;1999.90;999.90;;;9.50;99.90;;;;;;5032684;28;20482;-70
2022/12/19 11:47:24;;;;;;;1999.90;999.90;;;9.40;99.90;;;;;;5032391;28;20472;-69
2022/12/19 11:49:59;;;;;;;1999.90;999.90;;;9.40;99.90;;;;;;5028510;28;20475;-70
2022/12/19 11:52:37;;;;;;;1999.90;999.90;;;9.40;99.90;;;;;;5032787;28;21052;-70
2022/12/19 11:55:08;;;;;;;1999.90;999.90;;;9.40;99.90;;;;;;5032382;28;20428;-69
2022/12/19 11:57:41;;;;;;;1999.90;999.90;;;9.40;99.90;;;;;;5032015;28;20467;-70
2022/12/19 12:00:12;;;;;;;1999.90;999.90;;;9.40;99.90;;;;;;5026713;28;20478;-70
2022/12/19 12:03:30;;;;;;;1999.90;999.90;;;9.40;99.90;;;;;;5033061;28;20467;-69
2022/12/19 12:05:57;;;;;;;1999.90;999.90;;;9.40;99.90;;;;;;4989458;28;20425;-69
2022/12/19 12:08:38;;;;;;;1999.90;999.90;;;9.50;99.90;;;;;;5022603;28;20458;-69
2022/12/19 12:11:21;;;;;;;1999.90;999.90;;;9.60;99.90;;;;;;5031862;28;20469;-70
2022/12/19 12:14:07;;;;;;;1999.90;999.90;;;9.70;99.90;;;;;;5033107;28;20431;-68
2022/12/19 12:16:42;;;;;;;1999.90;999.90;;;9.80;99.90;;;;;;5031586;28;20526;-68
2022/12/19 12:19:22;;;;;;;1999.90;999.90;;;9.90;99.90;;;;;;5032975;28;20431;-68
2022/12/19 12:21:57;;;;;;;1999.90;999.90;;;10.00;99.90;;;;;;5032018;28;20562;-68
2022/12/19 12:24:40;;;;;;;1999.90;999.90;;;9.90;99.90;;;;;;5032029;28;20475;-66
2022/12/19 12:27:21;;;;;;;1999.90;999.90;;;10.00;99.90;;;;;;5032854;28;20438;-68